ACT        NSW        VIC        QLD        SA        WA        TAS        NT        INFO        CALC            by VK5ZD

  Atmospheric Gas Attenuation - ITU Rec 676-11   --------------- db/100km ---------------
Station Date Time Temp RH % AH g/m3 Dew Point Wind Direction Speed kph Gust kph Barometer mB Rainfall Since 9am 24GHz 47GHz 76GHz 122GHz 134GHz 241GHz
Alva Beach 25 00:00 25.3 75 17.56 20.5 17 20 1007.3 0 37.9 37.0 69.9 184.8 201.3 699.1
Amberley 25 00:00 22 73 14.17 16.9 11 15 1010.8 0.6 31.0 32.4 57.8 152.6 160.6 557.0
Applethorpe 25 00:50 14.7 88 11.08 12.7 13 19 1013.1 1.8 24.9 29.8 49.6 130.7 131.1 452.8
Archerfield 25 00:00 22.3 68 13.43 16.1 20 28 1010.8 0 29.4 31.1 54.5 143.7 149.7 519.0
Ayr 25 00:00 21.3 84 15.66 18.5 0 0 1013.1 0 34.2 35.5 65.1 172.0 184.1 638.8
Ballera 25 00:00 25.6 15 3.57 -2.9 26 32 1007.5 0 8.6 16.2 18.6 48.0 32.9 109.7
Barcaldine 24 15:00 40.4 18 9.38 11.9 17 1013.1 0 20.0 20.4 31.1 81.6 78.2 270.8
Beaudesert Aws 25 00:00 22.7 68 13.74 16.5 9 19 1011 0.2 30.0 31.4 55.5 146.4 153.2 531.2
Beerburrum 25 00:00 21.1 90 16.58 19.4 6 11 1013.1 1 36.2 37.3 69.6 183.8 198.6 689.0
Biloela 25 00:00 24 73 15.88 18.9 9 17 1007 0 34.5 34.5 63.5 167.8 180.0 624.9
Birdsville 25 00:00 27.5 18 4.76 1.1 20 30 1007.9 0 11.0 17.3 21.5 55.9 43.2 146.3
Blackall 25 00:00 31.6 23 7.6 8 9 13 1003.7 0 16.7 19.8 28.6 74.8 68.0 233.9
Blackwater Airport 25 00:00 22.7 72 14.55 17.4 9 13 1007.6 0.8 31.7 32.7 58.8 155.2 164.1 569.2
Boulia 24 15:00 39.9 16 8.13 9.5 2 1003.6 0 17.5 18.7 27.4 71.8 66.4 229.2
Bowen Airport Aws 25 00:00 23.8 79 16.99 19.9 4 6 1007.1 0 36.8 36.6 68.6 181.5 196.8 683.2
Brisbane 25 00:00 22.7 67 13.54 16.3 9 20 1010.9 0 29.6 31.1 54.6 144.2 150.5 521.6
Brisbane Airport 25 00:00 23.6 67 14.25 17.1 19 24 1010.5 0 31.0 32.0 57.0 150.4 158.4 549.3
Bundaberg 25 00:00 23.2 79 16.42 19.4 11 15 1009.1 0 35.7 35.9 66.7 176.3 190.2 660.0
Burketown Airport 25 00:00 29.2 74 21.49 24.1 19 26 1004.1 0 45.8 42.3 83.9 222.2 248.4 863.4
Cairns 25 00:00 24.2 83 18.26 21.1 4 4 1006.9 0 39.5 38.7 74.1 196.1 214.8 745.9
Cairns Racecourse 25 00:00 23.6 83 17.65 20.5 0 0 1013.1 0 38.2 38.1 72.2 191.0 208.1 722.5
Camooweal 25 00:00 31.6 20 6.61 5.9 13 17 1004.4 0 14.7 18.6 25.6 67.0 58.3 199.8
Canungra (Defence) 25 00:00 21.5 70 13.2 15.8 2 6 1013.1 0 28.9 31.0 54.2 142.9 148.4 514.1
Cape Flattery 25 00:00 25.5 82 19.41 22.2 13 17 1007.2 0 41.8 40.3 78.2 207.0 228.7 794.3
Cape Moreton 25 00:00 22.4 87 17.28 20.1 37 44 1009.3 0 37.6 37.8 71.4 188.8 205.2 712.4
Carters Bore 25 00:00 31.9 21 7.05 6.9 13 17 1013.1 0 15.6 19.3 27.1 70.9 62.8 215.7
Century Mine 25 00:00 32.6 37 12.9 16.4 13 19 1004 0 27.6 26.6 45.6 120.4 124.3 431.4
Charleville 25 00:00 28.4 21 5.84 4 13 17 1005.3 0 13.2 18.3 24.4 63.5 53.0 180.8
Charters Towers 24 15:00 37.2 17 7.53 8.6 4 1003.2 0 16.4 18.6 26.5 69.5 62.9 216.6
Clermont Airport 25 00:00 24.4 68 15.13 18.1 2 4 1005.7 3.2 32.8 33.0 59.8 158.1 168.3 584.1
Cloncurry 25 00:00 34 20 7.51 7.9 20 28 1003.3 0 16.4 19.2 27.5 72.0 65.1 224.2
Coen Airport 25 00:00 25.9 78 18.88 21.8 9 13 1006.9 0 40.7 39.1 75.3 199.3 219.3 761.8
Cooktown 25 00:00 25.5 81 19.18 22 0 0 1007.1 0 41.3 39.9 77.1 204.1 225.1 781.9
Coolangatta 25 00:50 21.3 81 15.1 17.9 11 15 1011.3 0 33.0 34.4 62.5 165.0 175.6 609.1
Cowley Beach (Defence) 25 00:00 22.3 90 17.77 20.6 4 6 1013.1 0 38.6 39.0 74.0 195.8 213.6 741.6
Dalby 25 00:00 22.1 64 12.49 15 35 46 1008 0 27.4 29.5 50.6 133.3 137.0 474.7
Double Island Point 25 00:00 23.6 81 17.23 20.1 9 13 1008.5 0 37.4 37.2 70.0 185.1 201.1 698.2
Emerald 25 00:00 24.7 68 15.39 18.4 19 24 1006.6 13.4 33.4 33.3 60.8 160.6 171.4 594.9
Gatton 25 00:00 22.2 69 13.55 16.2 15 20 1013.1 0 29.6 31.4 55.2 145.5 151.8 526.3
Gayndah 25 00:00 22.9 86 17.57 20.4 19 26 1007.6 4.8 38.2 38.1 72.2 190.9 208.0 722.2
Georgetown Airport 25 00:00 31.4 39 12.75 15.8 9 13 1004 3.2 27.4 26.8 45.8 120.7 124.4 431.7
Gladstone 25 00:00 24.5 77 17.23 20.2 11 19 1008.4 0 37.3 36.8 69.2 182.9 198.7 689.9
Gladstone Airport 25 00:00 25 71 16.34 19.4 9 15 1008.3 0 35.3 35.0 64.8 171.2 184.4 640.3
Gold Coast Seaway 25 00:00 20.8 82 14.85 17.6 15 20 1011 1.4 32.5 34.1 61.8 163.1 173.1 600.2
Greenbank (Defence) 25 00:00 21.3 79 14.72 17.5 4 9 1013.1 0 32.2 33.8 60.9 160.8 170.3 590.6
Gympie 25 00:00 22.5 92 18.37 21.1 2 4 1009.4 0 39.9 39.9 76.5 202.3 221.9 770.3
Hamilton Island 25 00:00 24.1 74 16.19 19.2 11 15 1007 0 35.1 35.0 64.8 171.2 184.3 639.7
Horn Island 25 00:00 27.8 80 21.52 24 6 9 1007.5 0 46.0 43.2 85.8 227.3 254.1 883.2
Hughenden 25 00:00 30.7 24 7.56 7.8 6 9 1003.9 0 16.7 19.9 28.8 75.3 68.3 235.0
Innisfail Aero 25 00:00 22.2 98 19.24 21.9 7 11 1006.8 0 41.8 41.6 80.9 214.0 236.3 820.3
Julia Creek 25 00:00 34.9 19 7.48 7.9 35 46 1003.6 0 16.4 19.0 27.1 71.1 64.2 220.9
Kingaroy 25 00:00 20 94 16.24 19 17 28 1008.6 29 35.6 36.9 68.7 181.6 195.6 678.6
Kowanyama 25 00:00 28.6 78 21.92 24.4 9 13 1006 0 46.8 43.5 86.7 229.7 257.4 894.7
Lady Elliot Island 25 00:00 24.6 81 18.23 21.1 22 28 1008.6 0 39.4 38.6 73.7 194.9 213.4 741.3
Lake Julius 25 00:00 35.3 18 7.23 7.4 7 11 1013.1 0 15.8 18.9 26.6 69.5 62.0 213.3
Lochington 25 00:00 24.9 52 11.9 14.4 15 28 1006.5 0 26.0 27.6 46.4 122.4 124.5 431.3
Lockhart River 25 00:00 26.4 91 22.65 24.8 0 0 1007.5 0.2 48.6 46.2 93.1 246.6 277.4 963.7
Logan City 24 15:00 27 63 16.21 19.5 26 1013.1 0 34.9 34.1 62.8 166.0 178.4 619.7
Longreach 25 00:00 32.3 26 8.92 10.4 15 24 1003.3 0 19.4 21.3 32.4 85.0 80.7 278.8
Low Isles 25 00:00 26 75 18.26 21.2 11 15 1007.1 0 39.3 37.9 72.4 191.5 209.7 728.5
Lucinda 25 00:00 26.1 70 17.14 20.2 20 30 1006.7 0 36.9 35.9 67.2 177.8 193.0 670.3
Mackay 25 00:00 23.9 74 16.01 19 11 13 1006.9 0 34.7 34.8 64.1 169.5 182.1 632.2
Mackay Airport 25 00:00 21.2 85 15.75 18.6 7 9 1007 0 34.4 35.4 65.3 172.5 184.9 641.5
Mackay Racecourse 25 00:00 20.9 91 16.57 19.4 0 0 1013.1 0 36.2 37.3 69.7 184.2 198.9 690.3
Mareeba 25 00:00 21.2 91 16.86 19.7 4 7 1006.8 0 36.8 37.5 70.4 186.1 201.7 699.9
Maryborough 25 00:00 23 85 17.47 20.3 7 13 1008.4 0 37.9 37.9 71.7 189.5 206.3 716.3
Middle Percy Island 25 00:00 23.1 74 15.3 18.2 15 20 1007.6 0 33.3 33.9 61.7 163.0 173.9 603.4
Miles 25 00:00 24.7 70 15.84 18.9 13 20 1007.2 0 34.3 34.2 62.8 165.9 177.8 617.3
Moranbah Airport 25 00:00 29.2 42 12.2 15 19 22 1006.7 0 26.3 26.7 45.1 119.0 121.5 421.3
Mornington Island Airport 25 00:00 29.7 79 23.57 25.7 26 35 1005.2 0 50.2 46.1 93.4 247.4 279.5 971.4
Mount Isa 25 00:00 33 20 7.12 7.1 17 20 1004.6 0 15.7 18.9 26.7 69.9 62.2 213.8
Mount Stuart (Defence) 25 00:00 23.6 80 17.01 19.9 11 15 1013.1 0 36.9 37.0 69.3 183.1 198.4 688.9
Nambour 25 00:00 22.1 93 18.15 20.9 4 11 1009.6 0.4 39.5 39.6 75.8 200.6 219.6 762.4
New May Downs 25 00:00 31.5 21 6.9 6.5 9 15 1013.1 0 15.3 19.2 26.8 70.0 61.6 211.6
Normanton 25 00:00 29.8 80 24 26 17 20 1004.2 0 51.1 46.8 95.3 252.6 285.8 993.5
Oakey 25 00:00 20.3 76 13.37 15.9 28 35 1009 0.6 29.4 31.6 55.5 146.5 152.6 528.9
Palmerville 25 00:00 26.1 63 15.42 18.5 13 20 1006.4 0 33.3 32.9 59.8 158.0 168.7 585.6
Portable Qfre Ncr 24 23:30 21.1 90 16.58 19.4 2 2 1013.1 0 36.2 37.3 69.6 183.8 198.6 689.0
Portable Qfrg Nr 24 23:50 21.3 76 14.17 17 0 0 1013.1 0 31.0 32.8 58.5 154.3 162.4 563.0
Portable Qfri (Inglewood) 24 23:50 21.1 61 11.24 13.4 15 19 1013.1 0 24.8 27.9 46.4 122.1 122.7 424.4
Portable Qfrj (North Tamborine) 24 23:50 17.4 84 12.45 14.7 20 26 1013.1 1.4 27.6 31.2 53.8 141.8 145.7 504.3
Portable Qfrk (Ravenshoe) 24 23:50 15.9 91 12.32 14.5 6 6 1013.1 0 27.4 31.5 54.3 143.1 146.7 507.7
Portable Qfrl (Mt Fox) 24 23:50 19.7 92 15.62 18.4 4 7 1013.1 0 34.2 36.1 66.3 175.2 187.5 650.3
Proserpine 25 00:00 20.8 82 14.85 17.6 6 9 1007.1 0 32.5 33.9 61.5 162.6 172.6 598.5
Redcliffe 25 00:00 23.8 74 15.92 18.9 39 43 1010.1 1 34.5 34.8 64.0 169.1 181.5 629.9
Redland (Alexandra Hills) 25 00:00 21.6 77 14.6 17.4 13 19 1013.1 0 31.9 33.4 60.1 158.7 167.9 582.3
Richmond 25 00:00 32 22 7.43 7.6 24 33 1004.1 0 16.4 19.5 27.9 73.1 66.0 226.9
Rockhampton 25 00:00 24 73 15.88 18.9 9 13 1007.7 0 34.5 34.5 63.5 167.9 180.1 625.2
Rolleston Airport 25 00:00 23.7 64 13.69 16.5 7 13 1004.5 10.2 29.9 30.8 54.2 143.2 149.8 519.5
Roma 25 00:00 27.5 23 6.09 4.5 7 9 1005.5 0 13.8 18.8 25.4 66.2 56.0 191.5
Samuel Hill 25 00:00 18.8 91 14.65 17.3 0 0 1008.2 0 32.3 34.4 62.3 164.6 174.4 604.5
Scherger 25 00:00 25.6 79 18.81 21.7 0 0 1007.2 0 40.5 39.1 75.3 199.3 219.2 761.3
St George 25 00:00 25.6 25 5.95 4.1 19 26 1005.9 0 13.5 19.0 25.5 66.6 55.9 191.0
St Lawrence 25 00:00 24.9 73 16.71 19.7 6 9 1007.9 0 36.1 35.6 66.4 175.7 190.0 659.6
Stanthorpe 24 15:00 24 76 16.53 19.5 1013.1 3 35.8 35.9 66.7 176.4 190.3 660.6
Sunshine Coast Airport 25 00:00 24 84 18.27 21.1 26 37 1009 0 39.5 38.9 74.5 197.0 215.8 749.5
Tewantin 25 00:00 23.8 85 18.28 21.1 11 15 1008.8 0 39.6 39.1 74.7 197.6 216.5 751.9
Thargomindah 25 00:00 27.2 15 3.9 -1.7 19 24 1007.5 0 9.3 16.3 19.2 49.5 35.3 118.3
The Monument 25 00:00 29.9 24 7.24 7.2 11 13 1005.6 0 16.1 19.7 28.1 73.6 65.8 226.2
Tin Can Bay (Defence) 25 00:00 23.5 81 17.13 20 0 4 1013.1 0 37.1 37.2 69.9 184.8 200.5 696.1
Toowoomba 25 00:00 17.6 92 13.8 16.3 43 54 1009.6 0 30.5 33.4 59.5 157.0 164.6 570.2
Townsville 25 00:00 25.1 78 18.06 21 11 13 1007.2 0 39.0 38.0 72.3 191.3 209.3 726.8
Townsville - Fanning River (Defence) 25 00:00 22.4 71 14.1 16.9 4 7 1006.2 0 30.8 32.0 57.0 150.5 158.3 548.8
Townsville Air Weapons Range (Defence) 25 00:00 22 77 14.94 17.8 11 15 1013.1 0 32.6 33.9 61.3 161.9 171.9 596.3
Trepell 25 00:00 31.7 23 7.64 8 17 20 1004.8 0 16.8 19.8 28.7 75.2 68.3 235.2
Urandangi 25 00:00 28.2 23 6.32 5.1 9 11 1005.8 0 14.2 18.9 25.9 67.5 57.9 198.0
Warwick 25 00:00 19.4 79 13.18 15.7 15 26 1009.8 0 29.1 31.6 55.4 146.1 151.8 526.0
Weipa 25 00:00 26.8 70 17.82 20.9 6 9 1007.1 0 38.3 36.8 69.7 184.3 201.1 698.5
Wellcamp Airport 25 00:00 19.9 77 13.23 15.7 35 48 1008.4 0 29.1 31.5 55.2 145.6 151.4 524.5
Williamson 25 00:00 22.5 80 15.98 18.9 0 0 1008.4 0 34.8 35.3 65.3 172.5 185.3 643.0
Willis Island 25 00:00 26.6 85 21.4 23.9 20 22 1006.7 0 45.9 43.6 86.6 229.2 256.2 890.3
Windorah 25 00:00 30 19 5.76 3.9 15 20 1005.4 0 13.0 17.9 23.7 61.7 51.2 174.8
Winton 25 00:00 29.5 41 12.1 14.9 15 19 1003.5 0 26.1 26.4 44.4 117.2 119.6 414.5
Woolshed 25 00:00 20.3 100 17.59 20.3 11 22 1006.2 0 38.5 39.3 74.7 197.6 215.6 748.0
Yeppoon 25 00:00 22.4 83 16.48 19.4 9 11 1008.4 0 35.9 36.3 67.6 178.8 193.0 669.8

Last Refresh: 25-Nov-2020 00:41:19

The information presented on this site is sourced from the Bureau of Meteorology.  Copyright in all material sourced from the Bureau of Meteorology resides with the Commonwealth of Australia.